sensor_id;sensor_type;location;lat;lon;timestamp;P1;P2;P0
45990;PMS5003;31721;41.740;-88.000;2023-05-10T00:00:06;10;7;
45990;PMS5003;31721;41.740;-88.000;2023-05-10T00:02:36;7;7;
45990;PMS5003;31721;41.740;-88.000;2023-05-10T00:05:05;21;21;
45990;PMS5003;31721;41.740;-88.000;2023-05-10T00:07:33;6;6;
45990;PMS5003;31721;41.740;-88.000;2023-05-10T00:10:02;52;52;
45990;PMS5003;31721;41.740;-88.000;2023-05-10T00:12:29;86;86;
45990;PMS5003;31721;41.740;-88.000;2023-05-10T00:14:58;20;18;
45990;PMS5003;31721;41.740;-88.000;2023-05-10T00:17:26;129;128;
45990;PMS5003;31721;41.740;-88.000;2023-05-10T00:19:54;237;237;
45990;PMS5003;31721;41.740;-88.000;2023-05-10T00:22:22;18;17;
45990;PMS5003;31721;41.740;-88.000;2023-05-10T00:24:50;21;21;
45990;PMS5003;31721;41.740;-88.000;2023-05-10T00:27:19;43;43;
45990;PMS5003;31721;41.740;-88.000;2023-05-10T00:29:47;108;108;
45990;PMS5003;31721;41.740;-88.000;2023-05-10T00:32:15;58;57;
45990;PMS5003;31721;41.740;-88.000;2023-05-10T00:34:42;9;9;
45990;PMS5003;31721;41.740;-88.000;2023-05-10T00:37:10;34;34;
45990;PMS5003;31721;41.740;-88.000;2023-05-10T00:39:38;34;34;
45990;PMS5003;31721;41.740;-88.000;2023-05-10T00:42:06;14;13;
45990;PMS5003;31721;41.740;-88.000;2023-05-10T00:44:33;26;26;
45990;PMS5003;31721;41.740;-88.000;2023-05-10T00:47:01;15;15;
45990;PMS5003;31721;41.740;-88.000;2023-05-10T00:49:29;40;40;
45990;PMS5003;31721;41.740;-88.000;2023-05-10T00:51:57;16;16;
45990;PMS5003;31721;41.740;-88.000;2023-05-10T00:54:25;13;13;
45990;PMS5003;31721;41.740;-88.000;2023-05-10T00:56:53;32;31;
45990;PMS5003;31721;41.740;-88.000;2023-05-10T00:59:21;29;28;
45990;PMS5003;31721;41.740;-88.000;2023-05-10T01:01:50;42;41;
45990;PMS5003;31721;41.740;-88.000;2023-05-10T01:04:19;58;56;
45990;PMS5003;31721;41.740;-88.000;2023-05-10T01:06:47;127;127;
45990;PMS5003;31721;41.740;-88.000;2023-05-10T01:09:15;152;151;
45990;PMS5003;31721;41.740;-88.000;2023-05-10T01:11:43;13;10;
45990;PMS5003;31721;41.740;-88.000;2023-05-10T01:14:11;10;10;
45990;PMS5003;31721;41.740;-88.000;2023-05-10T01:16:40;8;8;
45990;PMS5003;31721;41.740;-88.000;2023-05-10T01:19:10;9;8;
45990;PMS5003;31721;41.740;-88.000;2023-05-10T01:21:46;6;6;
45990;PMS5003;31721;41.740;-88.000;2023-05-10T01:24:39;8;6;
45990;PMS5003;31721;41.740;-88.000;2023-05-10T01:28:39;7;7;
45990;PMS5003;31721;41.740;-88.000;2023-05-10T01:31:31;9;6;
45990;PMS5003;31721;41.740;-88.000;2023-05-10T01:34:16;11;11;
45990;PMS5003;31721;41.740;-88.000;2023-05-10T01:36:50;13;13;
45990;PMS5003;31721;41.740;-88.000;2023-05-10T01:39:23;21;21;
45990;PMS5003;31721;41.740;-88.000;2023-05-10T01:41:56;25;23;
45990;PMS5003;31721;41.740;-88.000;2023-05-10T01:44:33;21;21;
45990;PMS5003;31721;41.740;-88.000;2023-05-10T01:47:07;34;31;
45990;PMS5003;31721;41.740;-88.000;2023-05-10T01:49:39;23;17;
45990;PMS5003;31721;41.740;-88.000;2023-05-10T01:52:11;16;14;
45990;PMS5003;31721;41.740;-88.000;2023-05-10T01:54:44;13;13;
45990;PMS5003;31721;41.740;-88.000;2023-05-10T01:57:17;13;12;
45990;PMS5003;31721;41.740;-88.000;2023-05-10T01:59:47;12;9;
45990;PMS5003;31721;41.740;-88.000;2023-05-10T02:02:18;11;9;
45990;PMS5003;31721;41.740;-88.000;2023-05-10T02:04:48;10;9;
45990;PMS5003;31721;41.740;-88.000;2023-05-10T02:07:17;8;8;
45990;PMS5003;31721;41.740;-88.000;2023-05-10T02:09:46;7;6;
45990;PMS5003;31721;41.740;-88.000;2023-05-10T02:12:15;4;4;
45990;PMS5003;31721;41.740;-88.000;2023-05-10T02:14:44;7;7;
45990;PMS5003;31721;41.740;-88.000;2023-05-10T02:17:13;4;4;
45990;PMS5003;31721;41.740;-88.000;2023-05-10T02:19:42;5;5;
45990;PMS5003;31721;41.740;-88.000;2023-05-10T02:22:11;5;5;
45990;PMS5003;31721;41.740;-88.000;2023-05-10T02:24:40;4;4;
45990;PMS5003;31721;41.740;-88.000;2023-05-10T02:27:09;6;6;
45990;PMS5003;31721;41.740;-88.000;2023-05-10T02:29:38;5;5;
45990;PMS5003;31721;41.740;-88.000;2023-05-10T02:32:08;4;4;
45990;PMS5003;31721;41.740;-88.000;2023-05-10T02:34:38;6;6;
45990;PMS5003;31721;41.740;-88.000;2023-05-10T02:37:06;9;9;
45990;PMS5003;31721;41.740;-88.000;2023-05-10T02:39:35;18;16;
45990;PMS5003;31721;41.740;-88.000;2023-05-10T02:42:04;19;19;
45990;PMS5003;31721;41.740;-88.000;2023-05-10T02:44:32;42;41;
45990;PMS5003;31721;41.740;-88.000;2023-05-10T02:47:03;30;30;
45990;PMS5003;31721;41.740;-88.000;2023-05-10T02:49:31;16;15;
45990;PMS5003;31721;41.740;-88.000;2023-05-10T02:52:00;31;31;
45990;PMS5003;31721;41.740;-88.000;2023-05-10T02:54:32;25;24;
45990;PMS5003;31721;41.740;-88.000;2023-05-10T02:57:04;60;58;
45990;PMS5003;31721;41.740;-88.000;2023-05-10T02:59:34;124;123;
45990;PMS5003;31721;41.740;-88.000;2023-05-10T03:02:02;34;34;
45990;PMS5003;31721;41.740;-88.000;2023-05-10T03:04:31;29;29;
45990;PMS5003;31721;41.740;-88.000;2023-05-10T03:06:59;37;36;
45990;PMS5003;31721;41.740;-88.000;2023-05-10T03:09:28;32;32;
45990;PMS5003;31721;41.740;-88.000;2023-05-10T03:12:00;46;45;
45990;PMS5003;31721;41.740;-88.000;2023-05-10T03:14:34;37;34;
45990;PMS5003;31721;41.740;-88.000;2023-05-10T03:17:10;27;27;
45990;PMS5003;31721;41.740;-88.000;2023-05-10T03:19:44;37;37;
45990;PMS5003;31721;41.740;-88.000;2023-05-10T03:22:21;28;28;
45990;PMS5003;31721;41.740;-88.000;2023-05-10T03:24:53;59;57;
45990;PMS5003;31721;41.740;-88.000;2023-05-10T03:27:23;30;29;
45990;PMS5003;31721;41.740;-88.000;2023-05-10T03:29:53;30;28;
45990;PMS5003;31721;41.740;-88.000;2023-05-10T03:32:22;50;49;
45990;PMS5003;31721;41.740;-88.000;2023-05-10T03:34:51;44;44;
45990;PMS5003;31721;41.740;-88.000;2023-05-10T03:37:19;25;25;
45990;PMS5003;31721;41.740;-88.000;2023-05-10T03:39:47;26;25;
45990;PMS5003;31721;41.740;-88.000;2023-05-10T03:42:15;21;21;
45990;PMS5003;31721;41.740;-88.000;2023-05-10T03:44:43;14;14;
45990;PMS5003;31721;41.740;-88.000;2023-05-10T03:47:11;49;48;
45990;PMS5003;31721;41.740;-88.000;2023-05-10T03:49:39;29;29;
45990;PMS5003;31721;41.740;-88.000;2023-05-10T03:52:07;25;25;
45990;PMS5003;31721;41.740;-88.000;2023-05-10T03:54:35;25;25;
45990;PMS5003;31721;41.740;-88.000;2023-05-10T03:57:03;43;43;
45990;PMS5003;31721;41.740;-88.000;2023-05-10T03:59:31;35;31;
45990;PMS5003;31721;41.740;-88.000;2023-05-10T04:01:59;31;31;
45990;PMS5003;31721;41.740;-88.000;2023-05-10T04:04:28;32;32;
45990;PMS5003;31721;41.740;-88.000;2023-05-10T04:06:55;46;46;
45990;PMS5003;31721;41.740;-88.000;2023-05-10T04:09:23;38;38;
45990;PMS5003;31721;41.740;-88.000;2023-05-10T04:11:51;33;33;
45990;PMS5003;31721;41.740;-88.000;2023-05-10T04:14:18;38;36;
45990;PMS5003;31721;41.740;-88.000;2023-05-10T04:16:46;40;39;
45990;PMS5003;31721;41.740;-88.000;2023-05-10T04:19:14;58;57;
45990;PMS5003;31721;41.740;-88.000;2023-05-10T04:21:41;127;125;
45990;PMS5003;31721;41.740;-88.000;2023-05-10T04:24:09;140;139;
45990;PMS5003;31721;41.740;-88.000;2023-05-10T04:26:37;118;118;
45990;PMS5003;31721;41.740;-88.000;2023-05-10T04:29:05;37;37;
45990;PMS5003;31721;41.740;-88.000;2023-05-10T04:31:32;7;7;
45990;PMS5003;31721;41.740;-88.000;2023-05-10T04:34:00;5;4;
45990;PMS5003;31721;41.740;-88.000;2023-05-10T04:36:28;10;8;
45990;PMS5003;31721;41.740;-88.000;2023-05-10T04:38:56;5;5;
45990;PMS5003;31721;41.740;-88.000;2023-05-10T04:41:24;9;8;
45990;PMS5003;31721;41.740;-88.000;2023-05-10T04:43:52;6;6;
45990;PMS5003;31721;41.740;-88.000;2023-05-10T04:46:20;6;6;
45990;PMS5003;31721;41.740;-88.000;2023-05-10T04:48:48;6;5;
45990;PMS5003;31721;41.740;-88.000;2023-05-10T04:51:16;6;6;
45990;PMS5003;31721;41.740;-88.000;2023-05-10T04:53:44;8;7;
45990;PMS5003;31721;41.740;-88.000;2023-05-10T04:56:12;5;5;
45990;PMS5003;31721;41.740;-88.000;2023-05-10T04:58:40;8;7;
45990;PMS5003;31721;41.740;-88.000;2023-05-10T05:01:08;9;7;
45990;PMS5003;31721;41.740;-88.000;2023-05-10T05:03:36;7;7;
45990;PMS5003;31721;41.740;-88.000;2023-05-10T05:06:05;8;8;
45990;PMS5003;31721;41.740;-88.000;2023-05-10T05:08:33;5;5;
45990;PMS5003;31721;41.740;-88.000;2023-05-10T05:11:00;8;7;
45990;PMS5003;31721;41.740;-88.000;2023-05-10T05:13:28;8;8;
45990;PMS5003;31721;41.740;-88.000;2023-05-10T05:15:57;5;5;
45990;PMS5003;31721;41.740;-88.000;2023-05-10T05:18:26;7;6;
45990;PMS5003;31721;41.740;-88.000;2023-05-10T05:20:54;9;7;
45990;PMS5003;31721;41.740;-88.000;2023-05-10T05:23:22;7;6;
45990;PMS5003;31721;41.740;-88.000;2023-05-10T05:25:51;7;7;
45990;PMS5003;31721;41.740;-88.000;2023-05-10T05:28:19;7;5;
45990;PMS5003;31721;41.740;-88.000;2023-05-10T05:30:47;5;5;
45990;PMS5003;31721;41.740;-88.000;2023-05-10T05:33:15;6;6;
45990;PMS5003;31721;41.740;-88.000;2023-05-10T05:35:43;9;8;
45990;PMS5003;31721;41.740;-88.000;2023-05-10T05:38:11;7;7;
45990;PMS5003;31721;41.740;-88.000;2023-05-10T05:40:39;6;6;
45990;PMS5003;31721;41.740;-88.000;2023-05-10T05:43:07;6;6;
45990;PMS5003;31721;41.740;-88.000;2023-05-10T05:45:35;9;6;
45990;PMS5003;31721;41.740;-88.000;2023-05-10T05:48:04;7;6;
45990;PMS5003;31721;41.740;-88.000;2023-05-10T05:50:31;8;8;
45990;PMS5003;31721;41.740;-88.000;2023-05-10T05:52:59;9;9;
45990;PMS5003;31721;41.740;-88.000;2023-05-10T05:55:27;7;7;
45990;PMS5003;31721;41.740;-88.000;2023-05-10T05:57:55;7;6;
45990;PMS5003;31721;41.740;-88.000;2023-05-10T06:00:23;9;7;
45990;PMS5003;31721;41.740;-88.000;2023-05-10T06:02:51;5;5;
45990;PMS5003;31721;41.740;-88.000;2023-05-10T06:05:19;7;7;
45990;PMS5003;31721;41.740;-88.000;2023-05-10T06:07:47;7;5;
45990;PMS5003;31721;41.740;-88.000;2023-05-10T06:10:15;6;6;
45990;PMS5003;31721;41.740;-88.000;2023-05-10T06:12:43;5;5;
45990;PMS5003;31721;41.740;-88.000;2023-05-10T06:15:11;5;5;
45990;PMS5003;31721;41.740;-88.000;2023-05-10T06:17:39;7;7;
45990;PMS5003;31721;41.740;-88.000;2023-05-10T06:20:08;9;8;
45990;PMS5003;31721;41.740;-88.000;2023-05-10T06:22:36;7;6;
45990;PMS5003;31721;41.740;-88.000;2023-05-10T06:25:05;6;4;
45990;PMS5003;31721;41.740;-88.000;2023-05-10T06:27:33;9;7;
45990;PMS5003;31721;41.740;-88.000;2023-05-10T06:30:01;6;5;
45990;PMS5003;31721;41.740;-88.000;2023-05-10T06:32:29;6;6;
45990;PMS5003;31721;41.740;-88.000;2023-05-10T06:34:57;8;6;
45990;PMS5003;31721;41.740;-88.000;2023-05-10T06:37:25;4;4;
45990;PMS5003;31721;41.740;-88.000;2023-05-10T06:39:54;7;6;
45990;PMS5003;31721;41.740;-88.000;2023-05-10T06:42:22;6;6;
45990;PMS5003;31721;41.740;-88.000;2023-05-10T06:44:49;6;6;
45990;PMS5003;31721;41.740;-88.000;2023-05-10T06:47:17;9;8;
45990;PMS5003;31721;41.740;-88.000;2023-05-10T06:49:45;8;6;
45990;PMS5003;31721;41.740;-88.000;2023-05-10T06:52:13;9;7;
45990;PMS5003;31721;41.740;-88.000;2023-05-10T06:54:41;7;7;
45990;PMS5003;31721;41.740;-88.000;2023-05-10T06:57:09;8;8;
45990;PMS5003;31721;41.740;-88.000;2023-05-10T06:59:37;9;9;
45990;PMS5003;31721;41.740;-88.000;2023-05-10T07:02:06;9;9;
45990;PMS5003;31721;41.740;-88.000;2023-05-10T07:04:34;10;10;
45990;PMS5003;31721;41.740;-88.000;2023-05-10T07:07:01;10;9;
45990;PMS5003;31721;41.740;-88.000;2023-05-10T07:09:30;10;10;
45990;PMS5003;31721;41.740;-88.000;2023-05-10T07:11:57;9;9;
45990;PMS5003;31721;41.740;-88.000;2023-05-10T07:14:25;15;14;
45990;PMS5003;31721;41.740;-88.000;2023-05-10T07:16:53;16;15;
45990;PMS5003;31721;41.740;-88.000;2023-05-10T07:19:21;16;15;
45990;PMS5003;31721;41.740;-88.000;2023-05-10T07:21:49;21;21;
45990;PMS5003;31721;41.740;-88.000;2023-05-10T07:24:17;9;9;
45990;PMS5003;31721;41.740;-88.000;2023-05-10T07:26:45;7;7;
45990;PMS5003;31721;41.740;-88.000;2023-05-10T07:29:13;6;4;
45990;PMS5003;31721;41.740;-88.000;2023-05-10T07:31:41;7;6;
45990;PMS5003;31721;41.740;-88.000;2023-05-10T07:34:10;6;6;
45990;PMS5003;31721;41.740;-88.000;2023-05-10T07:36:38;7;7;
45990;PMS5003;31721;41.740;-88.000;2023-05-10T07:39:06;6;6;
45990;PMS5003;31721;41.740;-88.000;2023-05-10T07:41:34;13;8;
45990;PMS5003;31721;41.740;-88.000;2023-05-10T07:44:02;7;7;
45990;PMS5003;31721;41.740;-88.000;2023-05-10T07:46:30;9;8;
45990;PMS5003;31721;41.740;-88.000;2023-05-10T07:48:58;9;8;
45990;PMS5003;31721;41.740;-88.000;2023-05-10T07:51:26;14;7;
45990;PMS5003;31721;41.740;-88.000;2023-05-10T07:53:54;7;6;
45990;PMS5003;31721;41.740;-88.000;2023-05-10T07:56:23;11;7;
45990;PMS5003;31721;41.740;-88.000;2023-05-10T07:58:51;7;7;
45990;PMS5003;31721;41.740;-88.000;2023-05-10T08:01:19;6;6;
45990;PMS5003;31721;41.740;-88.000;2023-05-10T08:03:47;8;7;
45990;PMS5003;31721;41.740;-88.000;2023-05-10T08:06:16;11;7;
45990;PMS5003;31721;41.740;-88.000;2023-05-10T08:08:45;7;5;
45990;PMS5003;31721;41.740;-88.000;2023-05-10T08:11:13;7;6;
45990;PMS5003;31721;41.740;-88.000;2023-05-10T08:13:40;8;6;
45990;PMS5003;31721;41.740;-88.000;2023-05-10T08:16:08;8;7;
45990;PMS5003;31721;41.740;-88.000;2023-05-10T08:18:37;7;7;
45990;PMS5003;31721;41.740;-88.000;2023-05-10T08:21:05;7;6;
45990;PMS5003;31721;41.740;-88.000;2023-05-10T08:23:34;7;6;
45990;PMS5003;31721;41.740;-88.000;2023-05-10T08:26:02;6;6;
45990;PMS5003;31721;41.740;-88.000;2023-05-10T08:28:30;7;6;
45990;PMS5003;31721;41.740;-88.000;2023-05-10T08:30:58;7;7;
45990;PMS5003;31721;41.740;-88.000;2023-05-10T08:33:26;6;5;
45990;PMS5003;31721;41.740;-88.000;2023-05-10T08:35:54;8;7;
45990;PMS5003;31721;41.740;-88.000;2023-05-10T08:38:22;8;8;
45990;PMS5003;31721;41.740;-88.000;2023-05-10T08:40:50;8;7;
45990;PMS5003;31721;41.740;-88.000;2023-05-10T08:43:20;8;8;
45990;PMS5003;31721;41.740;-88.000;2023-05-10T08:45:49;9;8;
45990;PMS5003;31721;41.740;-88.000;2023-05-10T08:48:21;7;6;
45990;PMS5003;31721;41.740;-88.000;2023-05-10T08:50:52;5;5;
45990;PMS5003;31721;41.740;-88.000;2023-05-10T08:53:20;7;7;
45990;PMS5003;31721;41.740;-88.000;2023-05-10T08:55:50;12;8;
45990;PMS5003;31721;41.740;-88.000;2023-05-10T08:58:19;11;11;
45990;PMS5003;31721;41.740;-88.000;2023-05-10T09:00:48;8;8;
45990;PMS5003;31721;41.740;-88.000;2023-05-10T09:03:16;8;8;
45990;PMS5003;31721;41.740;-88.000;2023-05-10T09:05:44;9;7;
45990;PMS5003;31721;41.740;-88.000;2023-05-10T09:08:12;9;9;
45990;PMS5003;31721;41.740;-88.000;2023-05-10T09:10:40;13;13;
45990;PMS5003;31721;41.740;-88.000;2023-05-10T09:13:10;9;8;
45990;PMS5003;31721;41.740;-88.000;2023-05-10T09:15:38;9;9;
45990;PMS5003;31721;41.740;-88.000;2023-05-10T09:18:06;9;8;
45990;PMS5003;31721;41.740;-88.000;2023-05-10T09:20:34;8;8;
45990;PMS5003;31721;41.740;-88.000;2023-05-10T09:23:02;8;8;
45990;PMS5003;31721;41.740;-88.000;2023-05-10T09:25:31;9;8;
45990;PMS5003;31721;41.740;-88.000;2023-05-10T09:27:59;9;9;
45990;PMS5003;31721;41.740;-88.000;2023-05-10T09:30:27;6;6;
45990;PMS5003;31721;41.740;-88.000;2023-05-10T09:32:56;11;9;
45990;PMS5003;31721;41.740;-88.000;2023-05-10T09:35:26;11;9;
45990;PMS5003;31721;41.740;-88.000;2023-05-10T09:37:56;13;12;
45990;PMS5003;31721;41.740;-88.000;2023-05-10T09:40:26;11;11;
45990;PMS5003;31721;41.740;-88.000;2023-05-10T09:42:55;11;9;
45990;PMS5003;31721;41.740;-88.000;2023-05-10T09:45:24;8;8;
45990;PMS5003;31721;41.740;-88.000;2023-05-10T09:47:54;13;11;
45990;PMS5003;31721;41.740;-88.000;2023-05-10T09:50:22;11;8;
45990;PMS5003;31721;41.740;-88.000;2023-05-10T09:52:50;11;11;
45990;PMS5003;31721;41.740;-88.000;2023-05-10T09:55:19;12;11;
45990;PMS5003;31721;41.740;-88.000;2023-05-10T09:57:49;15;14;
45990;PMS5003;31721;41.740;-88.000;2023-05-10T10:00:26;8;8;
45990;PMS5003;31721;41.740;-88.000;2023-05-10T10:02:55;12;11;
45990;PMS5003;31721;41.740;-88.000;2023-05-10T10:05:28;13;10;
45990;PMS5003;31721;41.740;-88.000;2023-05-10T10:07:57;19;17;
45990;PMS5003;31721;41.740;-88.000;2023-05-10T10:10:25;10;10;
45990;PMS5003;31721;41.740;-88.000;2023-05-10T10:12:54;21;17;
45990;PMS5003;31721;41.740;-88.000;2023-05-10T10:15:23;15;12;
45990;PMS5003;31721;41.740;-88.000;2023-05-10T10:17:51;13;13;
45990;PMS5003;31721;41.740;-88.000;2023-05-10T10:20:21;16;13;
45990;PMS5003;31721;41.740;-88.000;2023-05-10T10:22:49;14;13;
45990;PMS5003;31721;41.740;-88.000;2023-05-10T10:25:17;14;14;
45990;PMS5003;31721;41.740;-88.000;2023-05-10T10:27:48;21;16;
45990;PMS5003;31721;41.740;-88.000;2023-05-10T10:30:25;14;13;
45990;PMS5003;31721;41.740;-88.000;2023-05-10T10:33:10;13;12;
45990;PMS5003;31721;41.740;-88.000;2023-05-10T10:35:53;16;13;
45990;PMS5003;31721;41.740;-88.000;2023-05-10T10:38:24;15;12;
45990;PMS5003;31721;41.740;-88.000;2023-05-10T10:41:01;21;20;
45990;PMS5003;31721;41.740;-88.000;2023-05-10T10:43:34;12;12;
45990;PMS5003;31721;41.740;-88.000;2023-05-10T10:46:11;10;10;
45990;PMS5003;31721;41.740;-88.000;2023-05-10T10:48:41;13;13;
45990;PMS5003;31721;41.740;-88.000;2023-05-10T10:51:14;24;21;
45990;PMS5003;31721;41.740;-88.000;2023-05-10T10:53:42;13;13;
45990;PMS5003;31721;41.740;-88.000;2023-05-10T10:56:11;13;13;
45990;PMS5003;31721;41.740;-88.000;2023-05-10T10:58:40;10;10;
45990;PMS5003;31721;41.740;-88.000;2023-05-10T11:01:16;16;16;
45990;PMS5003;31721;41.740;-88.000;2023-05-10T11:04:16;14;12;
45990;PMS5003;31721;41.740;-88.000;2023-05-10T11:06:44;11;11;
45990;PMS5003;31721;41.740;-88.000;2023-05-10T11:09:12;17;15;
45990;PMS5003;31721;41.740;-88.000;2023-05-10T11:11:56;16;16;
45990;PMS5003;31721;41.740;-88.000;2023-05-10T11:14:23;14;12;
45990;PMS5003;31721;41.740;-88.000;2023-05-10T11:16:51;15;12;
45990;PMS5003;31721;41.740;-88.000;2023-05-10T11:19:19;13;12;
45990;PMS5003;31721;41.740;-88.000;2023-05-10T11:21:47;17;15;
45990;PMS5003;31721;41.740;-88.000;2023-05-10T11:24:17;15;14;
45990;PMS5003;31721;41.740;-88.000;2023-05-10T11:26:45;12;12;
45990;PMS5003;31721;41.740;-88.000;2023-05-10T11:29:16;16;13;
45990;PMS5003;31721;41.740;-88.000;2023-05-10T11:31:45;17;14;
45990;PMS5003;31721;41.740;-88.000;2023-05-10T11:34:22;15;13;
45990;PMS5003;31721;41.740;-88.000;2023-05-10T11:36:51;8;8;
45990;PMS5003;31721;41.740;-88.000;2023-05-10T11:39:20;11;11;
45990;PMS5003;31721;41.740;-88.000;2023-05-10T11:41:48;13;13;
45990;PMS5003;31721;41.740;-88.000;2023-05-10T11:44:17;12;12;
45990;PMS5003;31721;41.740;-88.000;2023-05-10T11:46:44;19;16;
45990;PMS5003;31721;41.740;-88.000;2023-05-10T11:49:12;12;12;
45990;PMS5003;31721;41.740;-88.000;2023-05-10T11:51:40;16;14;
45990;PMS5003;31721;41.740;-88.000;2023-05-10T11:54:10;12;12;
45990;PMS5003;31721;41.740;-88.000;2023-05-10T11:56:38;16;15;
45990;PMS5003;31721;41.740;-88.000;2023-05-10T11:59:07;19;17;
45990;PMS5003;31721;41.740;-88.000;2023-05-10T12:01:36;14;14;
45990;PMS5003;31721;41.740;-88.000;2023-05-10T12:04:05;21;20;
45990;PMS5003;31721;41.740;-88.000;2023-05-10T12:06:39;16;16;
45990;PMS5003;31721;41.740;-88.000;2023-05-10T12:09:08;17;16;
45990;PMS5003;31721;41.740;-88.000;2023-05-10T12:11:37;13;13;
45990;PMS5003;31721;41.740;-88.000;2023-05-10T12:14:06;17;12;
45990;PMS5003;31721;41.740;-88.000;2023-05-10T12:16:35;16;15;
45990;PMS5003;31721;41.740;-88.000;2023-05-10T12:19:04;13;13;
45990;PMS5003;31721;41.740;-88.000;2023-05-10T12:21:32;13;13;
45990;PMS5003;31721;41.740;-88.000;2023-05-10T12:24:01;14;14;
45990;PMS5003;31721;41.740;-88.000;2023-05-10T12:26:30;15;12;
45990;PMS5003;31721;41.740;-88.000;2023-05-10T12:29:16;19;13;
45990;PMS5003;31721;41.740;-88.000;2023-05-10T12:31:49;15;12;
45990;PMS5003;31721;41.740;-88.000;2023-05-10T12:34:26;16;13;
45990;PMS5003;31721;41.740;-88.000;2023-05-10T12:36:56;9;9;
45990;PMS5003;31721;41.740;-88.000;2023-05-10T12:39:26;11;10;
45990;PMS5003;31721;41.740;-88.000;2023-05-10T12:42:06;14;10;
45990;PMS5003;31721;41.740;-88.000;2023-05-10T12:44:34;13;13;
45990;PMS5003;31721;41.740;-88.000;2023-05-10T12:47:02;18;18;
45990;PMS5003;31721;41.740;-88.000;2023-05-10T12:49:30;28;28;
45990;PMS5003;31721;41.740;-88.000;2023-05-10T12:51:57;20;20;
45990;PMS5003;31721;41.740;-88.000;2023-05-10T12:54:26;11;9;
45990;PMS5003;31721;41.740;-88.000;2023-05-10T12:56:54;10;9;
45990;PMS5003;31721;41.740;-88.000;2023-05-10T12:59:22;16;13;
45990;PMS5003;31721;41.740;-88.000;2023-05-10T13:01:50;7;5;
45990;PMS5003;31721;41.740;-88.000;2023-05-10T13:04:18;11;10;
45990;PMS5003;31721;41.740;-88.000;2023-05-10T13:06:46;7;6;
45990;PMS5003;31721;41.740;-88.000;2023-05-10T13:09:14;10;10;
45990;PMS5003;31721;41.740;-88.000;2023-05-10T13:11:42;7;7;
45990;PMS5003;31721;41.740;-88.000;2023-05-10T13:14:10;8;7;
45990;PMS5003;31721;41.740;-88.000;2023-05-10T13:16:38;7;6;
45990;PMS5003;31721;41.740;-88.000;2023-05-10T13:19:06;8;7;
45990;PMS5003;31721;41.740;-88.000;2023-05-10T13:21:34;7;7;
45990;PMS5003;31721;41.740;-88.000;2023-05-10T13:24:02;10;9;
45990;PMS5003;31721;41.740;-88.000;2023-05-10T13:26:30;10;10;
45990;PMS5003;31721;41.740;-88.000;2023-05-10T13:28:58;12;7;
45990;PMS5003;31721;41.740;-88.000;2023-05-10T13:31:26;6;6;
45990;PMS5003;31721;41.740;-88.000;2023-05-10T13:33:55;7;7;
45990;PMS5003;31721;41.740;-88.000;2023-05-10T13:36:24;7;7;
45990;PMS5003;31721;41.740;-88.000;2023-05-10T13:38:52;8;6;
45990;PMS5003;31721;41.740;-88.000;2023-05-10T13:41:20;9;8;
45990;PMS5003;31721;41.740;-88.000;2023-05-10T13:43:47;24;23;
45990;PMS5003;31721;41.740;-88.000;2023-05-10T13:46:16;19;19;
45990;PMS5003;31721;41.740;-88.000;2023-05-10T13:48:44;21;21;
45990;PMS5003;31721;41.740;-88.000;2023-05-10T13:51:12;11;10;
45990;PMS5003;31721;41.740;-88.000;2023-05-10T13:53:40;10;9;
45990;PMS5003;31721;41.740;-88.000;2023-05-10T13:56:08;6;5;
45990;PMS5003;31721;41.740;-88.000;2023-05-10T13:58:36;15;15;
45990;PMS5003;31721;41.740;-88.000;2023-05-10T14:01:05;10;8;
45990;PMS5003;31721;41.740;-88.000;2023-05-10T14:03:33;6;6;
45990;PMS5003;31721;41.740;-88.000;2023-05-10T14:06:01;7;7;
45990;PMS5003;31721;41.740;-88.000;2023-05-10T14:08:30;9;9;
45990;PMS5003;31721;41.740;-88.000;2023-05-10T14:10:59;5;5;
45990;PMS5003;31721;41.740;-88.000;2023-05-10T14:13:27;6;6;
45990;PMS5003;31721;41.740;-88.000;2023-05-10T14:15:55;8;7;
45990;PMS5003;31721;41.740;-88.000;2023-05-10T14:18:23;7;5;
45990;PMS5003;31721;41.740;-88.000;2023-05-10T14:20:51;3;3;
45990;PMS5003;31721;41.740;-88.000;2023-05-10T14:23:19;6;5;
45990;PMS5003;31721;41.740;-88.000;2023-05-10T14:25:47;6;4;
45990;PMS5003;31721;41.740;-88.000;2023-05-10T14:28:16;3;3;
45990;PMS5003;31721;41.740;-88.000;2023-05-10T14:30:44;5;5;
45990;PMS5003;31721;41.740;-88.000;2023-05-10T14:33:13;5;4;
45990;PMS5003;31721;41.740;-88.000;2023-05-10T14:35:41;3;3;
45990;PMS5003;31721;41.740;-88.000;2023-05-10T14:38:08;3;3;
45990;PMS5003;31721;41.740;-88.000;2023-05-10T14:40:37;5;3;
45990;PMS5003;31721;41.740;-88.000;2023-05-10T14:43:06;2;2;
45990;PMS5003;31721;41.740;-88.000;2023-05-10T14:45:34;3;3;
45990;PMS5003;31721;41.740;-88.000;2023-05-10T14:48:02;6;5;
45990;PMS5003;31721;41.740;-88.000;2023-05-10T14:50:30;13;12;
45990;PMS5003;31721;41.740;-88.000;2023-05-10T14:52:58;18;18;
45990;PMS5003;31721;41.740;-88.000;2023-05-10T14:55:26;18;18;
45990;PMS5003;31721;41.740;-88.000;2023-05-10T14:57:55;13;12;
45990;PMS5003;31721;41.740;-88.000;2023-05-10T15:00:23;8;8;
45990;PMS5003;31721;41.740;-88.000;2023-05-10T15:02:51;4;3;
45990;PMS5003;31721;41.740;-88.000;2023-05-10T15:05:19;4;2;
45990;PMS5003;31721;41.740;-88.000;2023-05-10T15:07:48;5;3;
45990;PMS5003;31721;41.740;-88.000;2023-05-10T15:10:17;7;6;
45990;PMS5003;31721;41.740;-88.000;2023-05-10T15:12:45;4;4;
45990;PMS5003;31721;41.740;-88.000;2023-05-10T15:15:13;4;4;
45990;PMS5003;31721;41.740;-88.000;2023-05-10T15:17:41;4;4;
45990;PMS5003;31721;41.740;-88.000;2023-05-10T15:20:09;3;3;
45990;PMS5003;31721;41.740;-88.000;2023-05-10T15:22:37;4;4;
45990;PMS5003;31721;41.740;-88.000;2023-05-10T15:25:06;3;2;
45990;PMS5003;31721;41.740;-88.000;2023-05-10T15:27:35;6;3;
45990;PMS5003;31721;41.740;-88.000;2023-05-10T15:30:03;2;2;
45990;PMS5003;31721;41.740;-88.000;2023-05-10T15:32:33;4;3;
45990;PMS5003;31721;41.740;-88.000;2023-05-10T15:35:01;3;3;
45990;PMS5003;31721;41.740;-88.000;2023-05-10T15:37:30;4;4;
45990;PMS5003;31721;41.740;-88.000;2023-05-10T15:39:58;3;1;
45990;PMS5003;31721;41.740;-88.000;2023-05-10T15:42:27;4;3;
45990;PMS5003;31721;41.740;-88.000;2023-05-10T15:44:55;1;1;
45990;PMS5003;31721;41.740;-88.000;2023-05-10T15:47:23;4;4;
45990;PMS5003;31721;41.740;-88.000;2023-05-10T15:49:52;5;3;
45990;PMS5003;31721;41.740;-88.000;2023-05-10T15:52:21;4;3;
45990;PMS5003;31721;41.740;-88.000;2023-05-10T15:54:49;3;3;
45990;PMS5003;31721;41.740;-88.000;2023-05-10T15:57:18;4;3;
45990;PMS5003;31721;41.740;-88.000;2023-05-10T15:59:46;5;2;
45990;PMS5003;31721;41.740;-88.000;2023-05-10T16:02:14;3;3;
45990;PMS5003;31721;41.740;-88.000;2023-05-10T16:04:42;3;3;
45990;PMS5003;31721;41.740;-88.000;2023-05-10T16:07:11;5;5;
45990;PMS5003;31721;41.740;-88.000;2023-05-10T16:09:39;3;3;
45990;PMS5003;31721;41.740;-88.000;2023-05-10T16:12:07;4;2;
45990;PMS5003;31721;41.740;-88.000;2023-05-10T16:14:35;3;3;